sensor_id;sensor_type;location;lat;lon;timestamp;temperature;humidity
14079;DHT22;7115;50.150;8.568;2022-08-19T00:01:25;22.90;99.40
14079;DHT22;7115;50.150;8.568;2022-08-19T00:04:02;23.00;99.40
14079;DHT22;7115;50.150;8.568;2022-08-19T00:06:30;23.00;99.30
14079;DHT22;7115;50.150;8.568;2022-08-19T00:08:58;23.00;99.20
14079;DHT22;7115;50.150;8.568;2022-08-19T00:11:27;23.00;99.10
14079;DHT22;7115;50.150;8.568;2022-08-19T00:13:55;23.00;99.10
14079;DHT22;7115;50.150;8.568;2022-08-19T00:16:24;23.00;99.00
14079;DHT22;7115;50.150;8.568;2022-08-19T00:18:53;23.00;99.00
14079;DHT22;7115;50.150;8.568;2022-08-19T00:21:25;23.10;99.00
14079;DHT22;7115;50.150;8.568;2022-08-19T00:23:54;23.10;99.00
14079;DHT22;7115;50.150;8.568;2022-08-19T00:26:21;23.10;98.90
14079;DHT22;7115;50.150;8.568;2022-08-19T00:28:47;23.10;98.80
14079;DHT22;7115;50.150;8.568;2022-08-19T00:31:14;23.20;98.80
14079;DHT22;7115;50.150;8.568;2022-08-19T00:33:42;23.10;98.80
14079;DHT22;7115;50.150;8.568;2022-08-19T00:36:10;23.00;98.90
14079;DHT22;7115;50.150;8.568;2022-08-19T00:38:38;23.00;98.90
14079;DHT22;7115;50.150;8.568;2022-08-19T00:41:12;22.90;98.90
14079;DHT22;7115;50.150;8.568;2022-08-19T00:43:39;22.90;99.00
14079;DHT22;7115;50.150;8.568;2022-08-19T00:46:08;22.90;99.00
14079;DHT22;7115;50.150;8.568;2022-08-19T00:48:34;22.80;99.00
14079;DHT22;7115;50.150;8.568;2022-08-19T00:51:04;22.80;99.00
14079;DHT22;7115;50.150;8.568;2022-08-19T00:53:31;22.80;99.00
14079;DHT22;7115;50.150;8.568;2022-08-19T00:56:01;22.80;99.10
14079;DHT22;7115;50.150;8.568;2022-08-19T00:58:31;22.80;99.00
14079;DHT22;7115;50.150;8.568;2022-08-19T01:00:58;22.90;99.10
14079;DHT22;7115;50.150;8.568;2022-08-19T01:03:25;22.90;99.10
14079;DHT22;7115;50.150;8.568;2022-08-19T01:05:54;22.90;99.10
14079;DHT22;7115;50.150;8.568;2022-08-19T01:08:22;22.80;99.00
14079;DHT22;7115;50.150;8.568;2022-08-19T01:10:55;22.90;99.10
14079;DHT22;7115;50.150;8.568;2022-08-19T01:13:25;22.90;99.10
14079;DHT22;7115;50.150;8.568;2022-08-19T01:16:05;22.90;99.00
14079;DHT22;7115;50.150;8.568;2022-08-19T01:18:36;22.90;99.00
14079;DHT22;7115;50.150;8.568;2022-08-19T01:23:44;22.80;99.00
14079;DHT22;7115;50.150;8.568;2022-08-19T01:26:15;22.80;99.00
14079;DHT22;7115;50.150;8.568;2022-08-19T01:28:47;22.80;99.00
14079;DHT22;7115;50.150;8.568;2022-08-19T01:31:23;22.80;99.00
14079;DHT22;7115;50.150;8.568;2022-08-19T01:33:55;22.80;99.00
14079;DHT22;7115;50.150;8.568;2022-08-19T01:38:56;22.80;99.00
14079;DHT22;7115;50.150;8.568;2022-08-19T01:41:24;22.80;99.00
14079;DHT22;7115;50.150;8.568;2022-08-19T01:43:52;22.80;98.90
14079;DHT22;7115;50.150;8.568;2022-08-19T01:46:40;22.80;99.00
14079;DHT22;7115;50.150;8.568;2022-08-19T01:49:07;22.80;99.00
14079;DHT22;7115;50.150;8.568;2022-08-19T01:51:35;22.80;99.00
14079;DHT22;7115;50.150;8.568;2022-08-19T01:54:06;22.80;99.00
14079;DHT22;7115;50.150;8.568;2022-08-19T01:56:33;22.80;99.00
14079;DHT22;7115;50.150;8.568;2022-08-19T01:59:02;22.80;99.00
14079;DHT22;7115;50.150;8.568;2022-08-19T02:01:30;22.80;99.10
14079;DHT22;7115;50.150;8.568;2022-08-19T02:04:01;22.80;99.10
14079;DHT22;7115;50.150;8.568;2022-08-19T02:06:29;22.80;99.10
14079;DHT22;7115;50.150;8.568;2022-08-19T02:08:56;22.80;99.10
14079;DHT22;7115;50.150;8.568;2022-08-19T02:11:30;22.80;99.20
14079;DHT22;7115;50.150;8.568;2022-08-19T02:13:59;22.80;99.30
14079;DHT22;7115;50.150;8.568;2022-08-19T02:16:26;22.80;99.30
14079;DHT22;7115;50.150;8.568;2022-08-19T02:18:52;22.70;99.30
14079;DHT22;7115;50.150;8.568;2022-08-19T02:21:21;22.70;99.40
14079;DHT22;7115;50.150;8.568;2022-08-19T02:23:49;22.70;99.50
14079;DHT22;7115;50.150;8.568;2022-08-19T02:26:17;22.60;99.50
14079;DHT22;7115;50.150;8.568;2022-08-19T02:28:44;22.60;99.60
14079;DHT22;7115;50.150;8.568;2022-08-19T02:31:14;22.70;99.70
14079;DHT22;7115;50.150;8.568;2022-08-19T02:33:41;22.70;99.70
14079;DHT22;7115;50.150;8.568;2022-08-19T02:36:10;22.60;99.80
14079;DHT22;7115;50.150;8.568;2022-08-19T02:38:38;22.70;99.80
14079;DHT22;7115;50.150;8.568;2022-08-19T02:41:16;22.60;99.90
14079;DHT22;7115;50.150;8.568;2022-08-19T02:43:44;22.70;99.90
14079;DHT22;7115;50.150;8.568;2022-08-19T02:46:33;22.60;99.90
14079;DHT22;7115;50.150;8.568;2022-08-19T02:49:02;22.60;99.90
14079;DHT22;7115;50.150;8.568;2022-08-19T02:51:35;22.70;99.90
14079;DHT22;7115;50.150;8.568;2022-08-19T02:54:03;22.70;99.90
14079;DHT22;7115;50.150;8.568;2022-08-19T02:56:30;22.70;99.90
14079;DHT22;7115;50.150;8.568;2022-08-19T02:58:57;22.70;99.90
14079;DHT22;7115;50.150;8.568;2022-08-19T03:01:31;22.80;99.90
14079;DHT22;7115;50.150;8.568;2022-08-19T03:03:59;22.70;99.90
14079;DHT22;7115;50.150;8.568;2022-08-19T03:06:27;22.70;99.90
14079;DHT22;7115;50.150;8.568;2022-08-19T03:08:54;22.70;99.90
14079;DHT22;7115;50.150;8.568;2022-08-19T03:11:24;22.60;99.90
14079;DHT22;7115;50.150;8.568;2022-08-19T03:13:52;22.60;99.90
14079;DHT22;7115;50.150;8.568;2022-08-19T03:16:25;22.50;99.90
14079;DHT22;7115;50.150;8.568;2022-08-19T03:18:53;22.50;99.90
14079;DHT22;7115;50.150;8.568;2022-08-19T03:21:25;22.50;99.90
14079;DHT22;7115;50.150;8.568;2022-08-19T03:23:57;22.50;99.90
14079;DHT22;7115;50.150;8.568;2022-08-19T03:26:24;22.40;99.90
14079;DHT22;7115;50.150;8.568;2022-08-19T03:28:51;22.40;99.90
14079;DHT22;7115;50.150;8.568;2022-08-19T03:31:26;22.40;99.90
14079;DHT22;7115;50.150;8.568;2022-08-19T03:34:24;22.40;99.90
14079;DHT22;7115;50.150;8.568;2022-08-19T03:36:58;22.40;99.90
14079;DHT22;7115;50.150;8.568;2022-08-19T03:39:25;22.40;99.90
14079;DHT22;7115;50.150;8.568;2022-08-19T03:41:53;22.50;99.90
14079;DHT22;7115;50.150;8.568;2022-08-19T03:44:43;22.50;99.90
14079;DHT22;7115;50.150;8.568;2022-08-19T03:47:11;22.50;99.90
14079;DHT22;7115;50.150;8.568;2022-08-19T03:49:42;22.50;99.90
14079;DHT22;7115;50.150;8.568;2022-08-19T03:52:09;22.60;99.90
14079;DHT22;7115;50.150;8.568;2022-08-19T03:54:37;22.60;99.90
14079;DHT22;7115;50.150;8.568;2022-08-19T03:57:05;22.60;99.90
14079;DHT22;7115;50.150;8.568;2022-08-19T03:59:33;22.60;99.90
14079;DHT22;7115;50.150;8.568;2022-08-19T04:02:03;22.70;99.90
14079;DHT22;7115;50.150;8.568;2022-08-19T04:04:34;22.80;99.90
14079;DHT22;7115;50.150;8.568;2022-08-19T04:07:02;22.80;99.90
14079;DHT22;7115;50.150;8.568;2022-08-19T04:09:29;22.70;99.90
14079;DHT22;7115;50.150;8.568;2022-08-19T04:11:57;22.80;99.90
14079;DHT22;7115;50.150;8.568;2022-08-19T04:14:27;22.90;99.90
14079;DHT22;7115;50.150;8.568;2022-08-19T04:16:56;22.90;99.90
14079;DHT22;7115;50.150;8.568;2022-08-19T04:19:23;22.90;99.90
14079;DHT22;7115;50.150;8.568;2022-08-19T04:21:52;22.90;99.90
14079;DHT22;7115;50.150;8.568;2022-08-19T04:24:21;22.90;99.90
14079;DHT22;7115;50.150;8.568;2022-08-19T04:26:48;22.90;99.90
14079;DHT22;7115;50.150;8.568;2022-08-19T04:29:19;22.90;99.90
14079;DHT22;7115;50.150;8.568;2022-08-19T04:31:49;22.90;99.90
14079;DHT22;7115;50.150;8.568;2022-08-19T04:34:19;22.90;99.90
14079;DHT22;7115;50.150;8.568;2022-08-19T04:36:49;22.90;99.90
14079;DHT22;7115;50.150;8.568;2022-08-19T04:39:21;22.90;99.90
14079;DHT22;7115;50.150;8.568;2022-08-19T04:41:48;22.90;99.90
14079;DHT22;7115;50.150;8.568;2022-08-19T04:44:35;22.90;99.90
14079;DHT22;7115;50.150;8.568;2022-08-19T04:47:11;22.90;99.90
14079;DHT22;7115;50.150;8.568;2022-08-19T04:49:38;22.90;99.90
14079;DHT22;7115;50.150;8.568;2022-08-19T04:52:05;22.90;99.90
14079;DHT22;7115;50.150;8.568;2022-08-19T04:54:32;22.90;99.90
14079;DHT22;7115;50.150;8.568;2022-08-19T04:57:08;22.90;99.90
14079;DHT22;7115;50.150;8.568;2022-08-19T04:59:38;22.90;99.90
14079;DHT22;7115;50.150;8.568;2022-08-19T05:02:07;22.90;99.90
14079;DHT22;7115;50.150;8.568;2022-08-19T05:04:35;22.90;99.90
14079;DHT22;7115;50.150;8.568;2022-08-19T05:07:07;22.90;99.90
14079;DHT22;7115;50.150;8.568;2022-08-19T05:09:34;22.90;99.90
14079;DHT22;7115;50.150;8.568;2022-08-19T05:12:21;22.90;99.90
14079;DHT22;7115;50.150;8.568;2022-08-19T05:14:54;23.00;99.90
14079;DHT22;7115;50.150;8.568;2022-08-19T05:17:23;23.00;99.90
14079;DHT22;7115;50.150;8.568;2022-08-19T05:19:54;23.10;99.90
14079;DHT22;7115;50.150;8.568;2022-08-19T05:22:40;23.10;99.80
14079;DHT22;7115;50.150;8.568;2022-08-19T05:25:10;23.10;99.70
14079;DHT22;7115;50.150;8.568;2022-08-19T05:27:41;23.20;99.70
14079;DHT22;7115;50.150;8.568;2022-08-19T05:30:09;23.20;99.60
14079;DHT22;7115;50.150;8.568;2022-08-19T05:32:36;23.30;99.60
14079;DHT22;7115;50.150;8.568;2022-08-19T05:35:03;23.30;99.50
14079;DHT22;7115;50.150;8.568;2022-08-19T05:37:30;23.40;99.50
14079;DHT22;7115;50.150;8.568;2022-08-19T05:39:57;23.40;99.40
14079;DHT22;7115;50.150;8.568;2022-08-19T05:42:24;23.50;99.70
14079;DHT22;7115;50.150;8.568;2022-08-19T05:44:52;23.50;99.20
14079;DHT22;7115;50.150;8.568;2022-08-19T05:47:19;23.60;99.00
14079;DHT22;7115;50.150;8.568;2022-08-19T05:49:47;23.60;98.80
14079;DHT22;7115;50.150;8.568;2022-08-19T05:52:14;23.70;98.70
14079;DHT22;7115;50.150;8.568;2022-08-19T05:54:46;23.70;98.60
14079;DHT22;7115;50.150;8.568;2022-08-19T05:57:18;23.80;98.60
14079;DHT22;7115;50.150;8.568;2022-08-19T05:59:45;23.80;98.50
14079;DHT22;7115;50.150;8.568;2022-08-19T06:02:14;23.90;98.40
14079;DHT22;7115;50.150;8.568;2022-08-19T06:04:41;24.00;98.30
14079;DHT22;7115;50.150;8.568;2022-08-19T06:07:11;24.10;98.20
14079;DHT22;7115;50.150;8.568;2022-08-19T06:09:39;24.20;98.40
14079;DHT22;7115;50.150;8.568;2022-08-19T06:12:06;24.20;97.80
14079;DHT22;7115;50.150;8.568;2022-08-19T06:14:34;24.30;97.70
14079;DHT22;7115;50.150;8.568;2022-08-19T06:17:07;24.30;97.50
14079;DHT22;7115;50.150;8.568;2022-08-19T06:19:35;24.40;97.40
14079;DHT22;7115;50.150;8.568;2022-08-19T06:22:07;24.40;97.20
14079;DHT22;7115;50.150;8.568;2022-08-19T06:24:34;24.50;97.00
14079;DHT22;7115;50.150;8.568;2022-08-19T06:27:03;24.50;96.90
14079;DHT22;7115;50.150;8.568;2022-08-19T06:29:32;24.50;96.70
14079;DHT22;7115;50.150;8.568;2022-08-19T06:32:00;24.60;96.60
14079;DHT22;7115;50.150;8.568;2022-08-19T06:34:31;24.60;96.50
14079;DHT22;7115;50.150;8.568;2022-08-19T06:37:00;24.70;96.40
14079;DHT22;7115;50.150;8.568;2022-08-19T06:39:30;24.70;96.20
14079;DHT22;7115;50.150;8.568;2022-08-19T06:42:01;24.80;96.10
14079;DHT22;7115;50.150;8.568;2022-08-19T06:44:32;24.90;95.90
14079;DHT22;7115;50.150;8.568;2022-08-19T06:47:09;24.90;95.70
14079;DHT22;7115;50.150;8.568;2022-08-19T06:49:49;25.10;95.60
14079;DHT22;7115;50.150;8.568;2022-08-19T06:52:16;25.20;95.30
14079;DHT22;7115;50.150;8.568;2022-08-19T06:54:43;25.30;95.10
14079;DHT22;7115;50.150;8.568;2022-08-19T06:57:23;25.40;94.90
14079;DHT22;7115;50.150;8.568;2022-08-19T06:59:51;25.60;94.70
14079;DHT22;7115;50.150;8.568;2022-08-19T07:02:18;25.70;94.60
14079;DHT22;7115;50.150;8.568;2022-08-19T07:04:45;25.80;94.30
14079;DHT22;7115;50.150;8.568;2022-08-19T07:07:14;25.80;94.10
14079;DHT22;7115;50.150;8.568;2022-08-19T07:09:48;25.80;93.90
14079;DHT22;7115;50.150;8.568;2022-08-19T07:12:27;26.00;93.80
14079;DHT22;7115;50.150;8.568;2022-08-19T07:14:56;26.10;93.70
14079;DHT22;7115;50.150;8.568;2022-08-19T07:17:23;26.20;93.40
14079;DHT22;7115;50.150;8.568;2022-08-19T07:19:51;26.30;93.20
14079;DHT22;7115;50.150;8.568;2022-08-19T07:22:20;26.50;93.10
14079;DHT22;7115;50.150;8.568;2022-08-19T07:24:50;26.60;92.80
14079;DHT22;7115;50.150;8.568;2022-08-19T07:27:18;26.80;92.60
14079;DHT22;7115;50.150;8.568;2022-08-19T07:29:52;27.00;92.30
14079;DHT22;7115;50.150;8.568;2022-08-19T07:32:23;27.10;92.00
14079;DHT22;7115;50.150;8.568;2022-08-19T07:34:53;27.10;91.70
14079;DHT22;7115;50.150;8.568;2022-08-19T07:37:20;27.30;91.60
14079;DHT22;7115;50.150;8.568;2022-08-19T07:39:47;27.30;91.20
14079;DHT22;7115;50.150;8.568;2022-08-19T07:42:14;27.50;91.00
14079;DHT22;7115;50.150;8.568;2022-08-19T07:44:41;27.60;90.80
14079;DHT22;7115;50.150;8.568;2022-08-19T07:47:16;27.80;90.60
14079;DHT22;7115;50.150;8.568;2022-08-19T07:50:05;27.90;90.30
14079;DHT22;7115;50.150;8.568;2022-08-19T07:52:33;28.00;90.10
14079;DHT22;7115;50.150;8.568;2022-08-19T07:55:00;28.10;89.70
14079;DHT22;7115;50.150;8.568;2022-08-19T07:57:30;28.20;89.20
14079;DHT22;7115;50.150;8.568;2022-08-19T07:59:57;28.30;88.70
14079;DHT22;7115;50.150;8.568;2022-08-19T08:02:23;28.40;88.00
14079;DHT22;7115;50.150;8.568;2022-08-19T08:04:50;28.50;87.60
14079;DHT22;7115;50.150;8.568;2022-08-19T08:07:36;28.70;87.20
14079;DHT22;7115;50.150;8.568;2022-08-19T08:10:21;28.70;86.60
14079;DHT22;7115;50.150;8.568;2022-08-19T08:12:50;28.80;86.50
14079;DHT22;7115;50.150;8.568;2022-08-19T08:15:35;28.90;86.20
14079;DHT22;7115;50.150;8.568;2022-08-19T08:18:10;29.00;85.70
14079;DHT22;7115;50.150;8.568;2022-08-19T08:20:37;28.90;85.00
14079;DHT22;7115;50.150;8.568;2022-08-19T08:23:04;28.90;84.60
14079;DHT22;7115;50.150;8.568;2022-08-19T08:25:51;28.90;84.50
14079;DHT22;7115;50.150;8.568;2022-08-19T08:28:19;28.90;84.30
14079;DHT22;7115;50.150;8.568;2022-08-19T08:30:47;28.90;83.90
14079;DHT22;7115;50.150;8.568;2022-08-19T08:33:21;29.00;83.50
14079;DHT22;7115;50.150;8.568;2022-08-19T08:36:00;29.10;83.10
14079;DHT22;7115;50.150;8.568;2022-08-19T08:38:31;29.20;82.80
14079;DHT22;7115;50.150;8.568;2022-08-19T08:41:30;29.20;82.50
14079;DHT22;7115;50.150;8.568;2022-08-19T08:43:58;29.30;82.30
14079;DHT22;7115;50.150;8.568;2022-08-19T08:46:34;29.30;82.30
14079;DHT22;7115;50.150;8.568;2022-08-19T08:49:15;29.40;81.90
14079;DHT22;7115;50.150;8.568;2022-08-19T08:51:52;29.50;81.60
14079;DHT22;7115;50.150;8.568;2022-08-19T08:54:30;29.80;81.20
14079;DHT22;7115;50.150;8.568;2022-08-19T08:57:02;30.00;80.50
14079;DHT22;7115;50.150;8.568;2022-08-19T08:59:35;30.10;80.00
14079;DHT22;7115;50.150;8.568;2022-08-19T09:02:04;30.20;79.50
14079;DHT22;7115;50.150;8.568;2022-08-19T09:04:31;30.10;78.90
14079;DHT22;7115;50.150;8.568;2022-08-19T09:10:37;30.00;77.70
14079;DHT22;7115;50.150;8.568;2022-08-19T09:16:02;29.50;78.20
14079;DHT22;7115;50.150;8.568;2022-08-19T09:21:11;29.40;78.00
14079;DHT22;7115;50.150;8.568;2022-08-19T09:23:38;29.30;78.30
14079;DHT22;7115;50.150;8.568;2022-08-19T09:26:19;29.50;78.30
14079;DHT22;7115;50.150;8.568;2022-08-19T09:28:51;29.70;77.80
14079;DHT22;7115;50.150;8.568;2022-08-19T09:31:25;29.70;77.30
14079;DHT22;7115;50.150;8.568;2022-08-19T09:33:53;29.60;77.10
14079;DHT22;7115;50.150;8.568;2022-08-19T09:36:25;29.40;77.40
14079;DHT22;7115;50.150;8.568;2022-08-19T09:39:02;29.60;77.50
14079;DHT22;7115;50.150;8.568;2022-08-19T09:41:29;29.90;77.00
14079;DHT22;7115;50.150;8.568;2022-08-19T09:43:57;30.10;76.20
14079;DHT22;7115;50.150;8.568;2022-08-19T09:46:26;30.30;75.60
14079;DHT22;7115;50.150;8.568;2022-08-19T09:48:57;30.40;75.00
14079;DHT22;7115;50.150;8.568;2022-08-19T09:51:31;30.60;74.40
14079;DHT22;7115;50.150;8.568;2022-08-19T09:54:02;30.90;73.80
14079;DHT22;7115;50.150;8.568;2022-08-19T09:56:31;31.10;72.50
14079;DHT22;7115;50.150;8.568;2022-08-19T09:59:00;31.30;71.80
14079;DHT22;7115;50.150;8.568;2022-08-19T10:01:30;31.40;71.00
14079;DHT22;7115;50.150;8.568;2022-08-19T10:03:58;31.30;70.40
14079;DHT22;7115;50.150;8.568;2022-08-19T10:06:27;31.20;70.00
14079;DHT22;7115;50.150;8.568;2022-08-19T10:09:13;31.10;69.70
14079;DHT22;7115;50.150;8.568;2022-08-19T10:11:42;31.10;69.70
14079;DHT22;7115;50.150;8.568;2022-08-19T10:14:18;31.00;69.50
14079;DHT22;7115;50.150;8.568;2022-08-19T10:16:48;31.10;69.70
14079;DHT22;7115;50.150;8.568;2022-08-19T10:19:15;31.20;69.70
14079;DHT22;7115;50.150;8.568;2022-08-19T10:21:54;31.30;69.50
14079;DHT22;7115;50.150;8.568;2022-08-19T10:24:26;31.50;69.30
14079;DHT22;7115;50.150;8.568;2022-08-19T10:26:55;31.40;69.10
14079;DHT22;7115;50.150;8.568;2022-08-19T10:29:26;31.30;69.10
14079;DHT22;7115;50.150;8.568;2022-08-19T10:32:03;31.20;69.00
14079;DHT22;7115;50.150;8.568;2022-08-19T10:34:37;31.00;69.00
14079;DHT22;7115;50.150;8.568;2022-08-19T10:37:18;30.80;68.90
14079;DHT22;7115;50.150;8.568;2022-08-19T10:39:49;30.60;68.90
14079;DHT22;7115;50.150;8.568;2022-08-19T10:42:17;30.50;69.00
14079;DHT22;7115;50.150;8.568;2022-08-19T10:44:45;30.60;68.90
14079;DHT22;7115;50.150;8.568;2022-08-19T10:47:13;30.70;68.50
14079;DHT22;7115;50.150;8.568;2022-08-19T10:49:52;30.80;68.10
14079;DHT22;7115;50.150;8.568;2022-08-19T10:52:46;30.90;68.00
14079;DHT22;7115;50.150;8.568;2022-08-19T10:55:18;31.00;67.90
14079;DHT22;7115;50.150;8.568;2022-08-19T10:58:04;31.20;68.00
14079;DHT22;7115;50.150;8.568;2022-08-19T11:00:36;31.50;67.50
14079;DHT22;7115;50.150;8.568;2022-08-19T11:03:03;31.80;67.20
14079;DHT22;7115;50.150;8.568;2022-08-19T11:05:30;32.10;66.50
14079;DHT22;7115;50.150;8.568;2022-08-19T11:08:06;32.30;66.00
14079;DHT22;7115;50.150;8.568;2022-08-19T11:10:50;32.40;65.30
14079;DHT22;7115;50.150;8.568;2022-08-19T11:13:17;32.40;64.60
14079;DHT22;7115;50.150;8.568;2022-08-19T11:15:44;32.30;64.30
14079;DHT22;7115;50.150;8.568;2022-08-19T11:18:13;32.20;64.10
14079;DHT22;7115;50.150;8.568;2022-08-19T11:20:40;32.10;64.10
14079;DHT22;7115;50.150;8.568;2022-08-19T11:23:07;32.20;63.90
14079;DHT22;7115;50.150;8.568;2022-08-19T11:25:34;32.40;63.60
14079;DHT22;7115;50.150;8.568;2022-08-19T11:28:01;32.70;63.30
14079;DHT22;7115;50.150;8.568;2022-08-19T11:30:28;32.90;62.70
14079;DHT22;7115;50.150;8.568;2022-08-19T11:32:55;33.00;62.50
14079;DHT22;7115;50.150;8.568;2022-08-19T11:35:22;32.90;62.10
14079;DHT22;7115;50.150;8.568;2022-08-19T11:37:49;32.80;61.90
14079;DHT22;7115;50.150;8.568;2022-08-19T11:40:16;32.60;61.70
14079;DHT22;7115;50.150;8.568;2022-08-19T11:42:43;32.40;61.80
14079;DHT22;7115;50.150;8.568;2022-08-19T11:45:27;32.10;62.00
14079;DHT22;7115;50.150;8.568;2022-08-19T11:47:55;31.90;62.10
14079;DHT22;7115;50.150;8.568;2022-08-19T11:50:22;31.90;62.00
14079;DHT22;7115;50.150;8.568;2022-08-19T11:52:50;32.20;61.50
14079;DHT22;7115;50.150;8.568;2022-08-19T11:55:20;32.60;61.10
14079;DHT22;7115;50.150;8.568;2022-08-19T11:57:47;33.10;60.00
14079;DHT22;7115;50.150;8.568;2022-08-19T12:00:14;33.30;58.90
14079;DHT22;7115;50.150;8.568;2022-08-19T12:02:41;33.40;58.20
14079;DHT22;7115;50.150;8.568;2022-08-19T12:05:09;33.50;57.90
14079;DHT22;7115;50.150;8.568;2022-08-19T12:07:39;33.80;57.50
14079;DHT22;7115;50.150;8.568;2022-08-19T12:10:07;34.10;56.80
14079;DHT22;7115;50.150;8.568;2022-08-19T12:12:34;34.10;56.20
14079;DHT22;7115;50.150;8.568;2022-08-19T12:15:01;33.80;55.70
14079;DHT22;7115;50.150;8.568;2022-08-19T12:17:28;33.40;55.40
14079;DHT22;7115;50.150;8.568;2022-08-19T12:19:57;33.10;55.50
14079;DHT22;7115;50.150;8.568;2022-08-19T12:22:24;33.00;55.80
14079;DHT22;7115;50.150;8.568;2022-08-19T12:24:50;33.10;55.90
14079;DHT22;7115;50.150;8.568;2022-08-19T12:27:19;33.30;55.80
14079;DHT22;7115;50.150;8.568;2022-08-19T12:30:08;33.50;55.60
14079;DHT22;7115;50.150;8.568;2022-08-19T12:32:36;33.40;55.30
14079;DHT22;7115;50.150;8.568;2022-08-19T12:35:03;33.20;55.30
14079;DHT22;7115;50.150;8.568;2022-08-19T12:37:30;33.00;55.30
14079;DHT22;7115;50.150;8.568;2022-08-19T12:39:58;32.90;55.10
14079;DHT22;7115;50.150;8.568;2022-08-19T12:42:25;32.80;54.90
14079;DHT22;7115;50.150;8.568;2022-08-19T12:44:52;32.70;55.00
14079;DHT22;7115;50.150;8.568;2022-08-19T12:47:19;32.50;55.30
14079;DHT22;7115;50.150;8.568;2022-08-19T12:49:48;32.30;55.50
14079;DHT22;7115;50.150;8.568;2022-08-19T12:52:23;32.20;55.70
14079;DHT22;7115;50.150;8.568;2022-08-19T12:54:51;31.90;56.00
14079;DHT22;7115;50.150;8.568;2022-08-19T12:57:24;31.70;56.30
14079;DHT22;7115;50.150;8.568;2022-08-19T13:00:09;31.50;56.60
14079;DHT22;7115;50.150;8.568;2022-08-19T13:02:42;31.40;56.80
14079;DHT22;7115;50.150;8.568;2022-08-19T13:05:15;31.50;57.70
14079;DHT22;7115;50.150;8.568;2022-08-19T13:07:42;31.50;56.80
14079;DHT22;7115;50.150;8.568;2022-08-19T13:10:15;31.40;56.50
14079;DHT22;7115;50.150;8.568;2022-08-19T13:12:43;31.30;56.80
14079;DHT22;7115;50.150;8.568;2022-08-19T13:15:10;31.40;56.80
14079;DHT22;7115;50.150;8.568;2022-08-19T13:17:40;31.40;56.70
14079;DHT22;7115;50.150;8.568;2022-08-19T13:20:08;31.40;56.70
14079;DHT22;7115;50.150;8.568;2022-08-19T13:22:36;31.30;56.60
14079;DHT22;7115;50.150;8.568;2022-08-19T13:25:07;31.20;56.50
14079;DHT22;7115;50.150;8.568;2022-08-19T13:27:34;31.10;56.40
14079;DHT22;7115;50.150;8.568;2022-08-19T13:30:03;31.00;57.10
14079;DHT22;7115;50.150;8.568;2022-08-19T13:32:48;31.00;56.50
14079;DHT22;7115;50.150;8.568;2022-08-19T13:35:34;31.00;56.70
14079;DHT22;7115;50.150;8.568;2022-08-19T13:38:01;31.00;56.70
14079;DHT22;7115;50.150;8.568;2022-08-19T13:40:32;31.00;56.50
14079;DHT22;7115;50.150;8.568;2022-08-19T13:43:03;31.00;56.40
14079;DHT22;7115;50.150;8.568;2022-08-19T13:45:53;31.00;56.30
14079;DHT22;7115;50.150;8.568;2022-08-19T13:48:23;31.10;56.20
14079;DHT22;7115;50.150;8.568;2022-08-19T13:50:50;31.10;56.10
14079;DHT22;7115;50.150;8.568;2022-08-19T13:53:17;31.10;56.80
14079;DHT22;7115;50.150;8.568;2022-08-19T13:55:44;31.10;56.40
14079;DHT22;7115;50.150;8.568;2022-08-19T13:58:12;31.00;56.40
14079;DHT22;7115;50.150;8.568;2022-08-19T14:00:43;30.90;56.40
14079;DHT22;7115;50.150;8.568;2022-08-19T14:03:10;30.80;56.40
14079;DHT22;7115;50.150;8.568;2022-08-19T14:05:38;30.70;56.40
14079;DHT22;7115;50.150;8.568;2022-08-19T14:08:05;30.80;56.30
14079;DHT22;7115;50.150;8.568;2022-08-19T14:10:32;30.90;56.20
14079;DHT22;7115;50.150;8.568;2022-08-19T14:13:02;31.00;56.00
14079;DHT22;7115;50.150;8.568;2022-08-19T14:15:30;31.30;55.80
14079;DHT22;7115;50.150;8.568;2022-08-19T14:17:57;31.40;55.40
14079;DHT22;7115;50.150;8.568;2022-08-19T14:20:25;31.70;55.10
14079;DHT22;7115;50.150;8.568;2022-08-19T14:22:52;31.90;54.90
14079;DHT22;7115;50.150;8.568;2022-08-19T14:25:24;32.10;54.60
14079;DHT22;7115;50.150;8.568;2022-08-19T14:27:51;32.20;54.30
14079;DHT22;7115;50.150;8.568;2022-08-19T14:30:27;32.30;54.00
14079;DHT22;7115;50.150;8.568;2022-08-19T14:32:59;32.40;53.60
14079;DHT22;7115;50.150;8.568;2022-08-19T14:35:31;32.40;53.30
14079;DHT22;7115;50.150;8.568;2022-08-19T14:38:03;32.50;53.20
14079;DHT22;7115;50.150;8.568;2022-08-19T14:40:31;32.50;52.90
14079;DHT22;7115;50.150;8.568;2022-08-19T14:43:01;32.50;52.70
14079;DHT22;7115;50.150;8.568;2022-08-19T14:45:37;32.50;52.50
14079;DHT22;7115;50.150;8.568;2022-08-19T14:48:07;32.40;52.30
14079;DHT22;7115;50.150;8.568;2022-08-19T14:50:45;32.40;52.30
14079;DHT22;7115;50.150;8.568;2022-08-19T14:53:12;32.30;52.40
14079;DHT22;7115;50.150;8.568;2022-08-19T14:55:43;32.30;52.40
14079;DHT22;7115;50.150;8.568;2022-08-19T14:58:10;32.30;52.20
14079;DHT22;7115;50.150;8.568;2022-08-19T15:00:57;32.20;52.10
14079;DHT22;7115;50.150;8.568;2022-08-19T15:03:24;32.10;52.00
14079;DHT22;7115;50.150;8.568;2022-08-19T15:05:51;32.00;51.80
14079;DHT22;7115;50.150;8.568;2022-08-19T15:08:18;32.00;51.90
14079;DHT22;7115;50.150;8.568;2022-08-19T15:10:45;31.90;51.90
14079;DHT22;7115;50.150;8.568;2022-08-19T15:13:14;31.80;52.00
14079;DHT22;7115;50.150;8.568;2022-08-19T15:15:41;31.70;52.20
14079;DHT22;7115;50.150;8.568;2022-08-19T15:18:08;31.60;53.00
14079;DHT22;7115;50.150;8.568;2022-08-19T15:20:34;31.50;52.20
14079;DHT22;7115;50.150;8.568;2022-08-19T15:23:02;31.50;52.20
14079;DHT22;7115;50.150;8.568;2022-08-19T15:25:29;31.40;52.10
14079;DHT22;7115;50.150;8.568;2022-08-19T15:27:56;31.40;52.00
14079;DHT22;7115;50.150;8.568;2022-08-19T15:30:24;31.40;52.70
14079;DHT22;7115;50.150;8.568;2022-08-19T15:32:52;31.40;52.00
14079;DHT22;7115;50.150;8.568;2022-08-19T15:35:19;31.40;51.90
14079;DHT22;7115;50.150;8.568;2022-08-19T15:37:50;31.40;51.70
14079;DHT22;7115;50.150;8.568;2022-08-19T15:40:18;31.40;51.60
14079;DHT22;7115;50.150;8.568;2022-08-19T15:42:46;31.40;51.60
14079;DHT22;7115;50.150;8.568;2022-08-19T15:45:13;31.40;51.70
14079;DHT22;7115;50.150;8.568;2022-08-19T15:47:40;31.30;51.70
14079;DHT22;7115;50.150;8.568;2022-08-19T15:50:16;31.30;52.00
14079;DHT22;7115;50.150;8.568;2022-08-19T15:52:53;31.30;52.10
14079;DHT22;7115;50.150;8.568;2022-08-19T15:55:22;31.30;52.10
14079;DHT22;7115;50.150;8.568;2022-08-19T15:58:05;31.40;52.20
14079;DHT22;7115;50.150;8.568;2022-08-19T16:00:56;31.40;52.70
14079;DHT22;7115;50.150;8.568;2022-08-19T16:03:46;31.40;52.20
14079;DHT22;7115;50.150;8.568;2022-08-19T16:06:42;31.40;52.40
14079;DHT22;7115;50.150;8.568;2022-08-19T16:09:09;31.50;52.50
14079;DHT22;7115;50.150;8.568;2022-08-19T16:11:36;31.50;52.60
14079;DHT22;7115;50.150;8.568;2022-08-19T16:14:05;31.50;52.60
14079;DHT22;7115;50.150;8.568;2022-08-19T16:16:36;31.50;52.50
14079;DHT22;7115;50.150;8.568;2022-08-19T16:19:06;31.50;52.60
14079;DHT22;7115;50.150;8.568;2022-08-19T16:21:38;31.50;52.70